LIMP METAR and TAF | Updated Today

LIMP METAR

Parma Airport

Observation time: 24 min. ago

LIMP 061950Z 10008KT 9999 FEW040 02/M04 Q1033

Need help? Read our tutorial on how to read METARs or read the parsed version below.

Parma Airport (LIMP) METAR

  • Weather conditions on Mon, 06 Feb 2023 19:50:00 +0000 (24 min. ago):
  • Present conditions: Dry
  • Clouds: A few at 1219 meters
  • Visibility: Greater than 10 km
  • Wind: 100 degrees at 8 knots
  • Temperature: 2 celsius
  • Dew point: -4 celsius
  • Pressure: 1033 millibars
  • Remarks: None


Useful to know...

LIMP TAF

Parma Airport

TAF LIMP 061700Z 0618/0718 08008KT 9999 FEW040
Observation time: 3:14 hr. ago
Need help? Read our tutorial on how to read TAFs or read the parsed version below.

Parsed version of TAF for Parma Airport (LIMP)

  • From 06 February at 18:00 UTC, to day 07 of the month at 18:00 UTC
  • Clouds: A few at 1219 meters
  • Visibility: Greater than 10 km
  • Wind: 80 degrees at 8